Time;durP1;ratioP1;P1;durP2;ratioP2;P2;SDS_P1;SDS_P2;PMS_P1;PMS_P2;Temp;Humidity;BMP_temperature;BMP_pressure;BME280_temperature;BME280_humidity;BME280_pressure;Samples;Min_cycle;Max_cycle;Signal;HPM_P1;HPM_P2
2023/07/01 00:00:03;;;;;;;;;;;;;;;;;;;;;
2023/07/01 00:12:04;;;;;;;7.73;2.87;;;;;;;;;;4789910;29;20207;-91
2023/07/01 00:14:30;;;;;;;5.53;2.83;;;;;;;;;;4826793;29;20203;-91
2023/07/01 00:16:58;;;;;;;8.17;3.00;;;;;;;;;;4968406;28;20269;-90
2023/07/01 00:19:49;;;;;;;7.63;2.70;;;;;;;;;;4993946;28;20309;-90
2023/07/01 00:22:16;;;;;;;5.33;2.80;;;;;;;;;;4979081;28;20185;-89
2023/07/01 00:24:42;;;;;;;4.03;2.70;;;;;;;;;;4991551;28;20280;-90
2023/07/01 00:27:08;;;;;;;8.60;3.10;;;;;;;;;;4972488;28;20194;-89
2023/07/01 00:29:39;;;;;;;4.47;2.87;;;;;;;;;;4991781;28;20182;-90
2023/07/01 00:34:56;;;;;;;4.53;2.70;;;;;;;;;;4910028;29;20193;-90
2023/07/01 00:37:34;;;;;;;5.77;2.90;;;;;;;;;;4903583;29;20205;-90
2023/07/01 00:40:03;;;;;;;6.07;3.00;;;;;;;;;;4965287;28;20251;-90
2023/07/01 00:42:32;;;;;;;4.83;2.87;;;;;;;;;;4999840;28;20185;-91
2023/07/01 00:45:04;;;;;;;6.03;2.70;;;;;;;;;;4997134;28;20174;-90
2023/07/01 00:47:38;;;;;;;4.33;2.57;;;;;;;;;;4999279;28;20200;-90
2023/07/01 00:50:05;;;;;;;6.47;2.57;;;;;;;;;;4982164;28;20216;-90
2023/07/01 00:52:31;;;;;;;5.67;2.80;;;;;;;;;;4994600;28;20189;-91
2023/07/01 00:55:17;;;;;;;6.07;3.00;;;;;;;;;;4999783;28;20183;-92
2023/07/01 00:58:06;;;;;;;4.30;2.87;;;;;;;;;;5015372;28;20189;-91
2023/07/01 01:00:32;;;;;;;5.30;2.57;;;;;;;;;;4991747;28;20216;-89
2023/07/01 01:03:21;;;;;;;6.30;2.57;;;;;;;;;;4995539;28;20257;-89
2023/07/01 01:06:04;;;;;;;4.90;2.80;;;;;;;;;;4998098;28;20188;-87
2023/07/01 01:08:50;;;;;;;5.50;2.30;;;;;;;;;;4998773;28;20208;-89
2023/07/01 01:11:16;;;;;;;3.97;2.40;;;;;;;;;;4959275;28;20189;-89
2023/07/01 01:13:46;;;;;;;6.73;2.77;;;;;;;;;;4998221;28;20189;-90
2023/07/01 01:16:15;;;;;;;6.40;2.57;;;;;;;;;;4987737;28;20181;-89
2023/07/01 01:18:42;;;;;;;7.23;2.63;;;;;;;;;;4979622;28;20182;-89
2023/07/01 01:21:10;;;;;;;6.20;2.50;;;;;;;;;;4990953;28;20177;-89
2023/07/01 01:23:38;;;;;;;4.83;2.43;;;;;;;;;;4998681;28;20178;-89
2023/07/01 01:26:15;;;;;;;7.10;2.70;;;;;;;;;;4998463;28;20227;-90
2023/07/01 01:28:44;;;;;;;4.27;2.30;;;;;;;;;;4998773;28;20193;-90
2023/07/01 01:31:17;;;;;;;6.90;2.80;;;;;;;;;;4998294;28;20281;-90
2023/07/01 01:33:45;;;;;;;4.73;2.77;;;;;;;;;;4996097;28;20217;-90
2023/07/01 01:36:17;;;;;;;3.97;2.70;;;;;;;;;;4999434;28;20211;-91
2023/07/01 01:38:46;;;;;;;6.10;2.47;;;;;;;;;;4999201;28;20205;-90
2023/07/01 01:41:32;;;;;;;5.90;2.80;;;;;;;;;;4999320;28;20229;-90
2023/07/01 01:44:11;;;;;;;5.20;2.70;;;;;;;;;;4976879;28;20182;-91
2023/07/01 01:46:40;;;;;;;7.67;2.50;;;;;;;;;;4946246;28;20191;-90
2023/07/01 01:49:10;;;;;;;4.90;2.60;;;;;;;;;;4977048;28;20185;-90
2023/07/01 01:51:39;;;;;;;5.77;2.40;;;;;;;;;;4979577;28;20217;-90
2023/07/01 01:54:06;;;;;;;4.60;2.60;;;;;;;;;;4980157;28;20277;-91
2023/07/01 01:56:38;;;;;;;6.67;2.93;;;;;;;;;;4978061;28;20236;-91
2023/07/01 01:59:04;;;;;;;6.97;2.63;;;;;;;;;;4982976;28;20216;-91
2023/07/01 02:01:30;;;;;;;5.20;2.77;;;;;;;;;;4977885;28;20174;-90
2023/07/01 02:03:58;;;;;;;6.57;3.00;;;;;;;;;;4979036;28;20181;-91
2023/07/01 02:06:30;;;;;;;6.43;2.70;;;;;;;;;;4978636;28;20190;-87
2023/07/01 02:08:56;;;;;;;9.83;2.77;;;;;;;;;;4959012;28;20186;-90
2023/07/01 02:11:22;;;;;;;8.60;2.70;;;;;;;;;;4959855;28;20185;-90
2023/07/01 02:13:48;;;;;;;4.93;2.50;;;;;;;;;;4980059;28;20198;-89
2023/07/01 02:16:14;;;;;;;6.57;2.50;;;;;;;;;;4966443;28;20186;-90
2023/07/01 02:18:44;;;;;;;9.70;3.03;;;;;;;;;;4983729;28;20193;-90
2023/07/01 02:21:12;;;;;;;8.97;2.70;;;;;;;;;;4983545;28;20180;-89
2023/07/01 02:23:40;;;;;;;6.97;2.90;;;;;;;;;;4983465;28;20214;-91
2023/07/01 02:26:17;;;;;;;5.67;2.90;;;;;;;;;;4986272;28;20178;-91
2023/07/01 02:28:46;;;;;;;6.43;2.70;;;;;;;;;;4995016;28;20206;-89
2023/07/01 02:31:16;;;;;;;5.13;2.77;;;;;;;;;;4992870;28;20186;-92
2023/07/01 02:33:44;;;;;;;5.80;2.60;;;;;;;;;;4967131;28;20186;-89
2023/07/01 02:36:24;;;;;;;6.83;2.77;;;;;;;;;;4977493;28;20190;-89
2023/07/01 02:38:50;;;;;;;6.20;2.83;;;;;;;;;;4978504;28;20181;-90
2023/07/01 02:41:26;;;;;;;6.00;2.63;;;;;;;;;;4995257;28;20232;-88
2023/07/01 02:44:22;;;;;;;7.90;2.90;;;;;;;;;;4997511;28;20220;-87
2023/07/01 02:46:48;;;;;;;6.27;2.83;;;;;;;;;;4997163;28;20204;-89
2023/07/01 02:49:20;;;;;;;5.03;2.33;;;;;;;;;;4996693;28;20200;-90
2023/07/01 02:51:46;;;;;;;4.20;2.43;;;;;;;;;;4997059;28;20181;-91
2023/07/01 02:54:18;;;;;;;9.10;2.90;;;;;;;;;;4995429;28;20185;-91
2023/07/01 02:56:44;;;;;;;5.30;2.40;;;;;;;;;;4998792;28;20201;-88
2023/07/01 02:59:19;;;;;;;7.13;2.60;;;;;;;;;;4996446;28;20217;-88
2023/07/01 03:01:46;;;;;;;6.43;2.93;;;;;;;;;;4996913;28;20191;-89
2023/07/01 03:04:13;;;;;;;5.63;2.90;;;;;;;;;;4995509;28;20243;-90
2023/07/01 03:06:42;;;;;;;9.23;3.07;;;;;;;;;;4995888;28;20181;-89
2023/07/01 03:09:11;;;;;;;5.30;2.97;;;;;;;;;;4997496;28;20252;-89
2023/07/01 03:11:46;;;;;;;4.17;2.67;;;;;;;;;;4996140;28;20252;-89
2023/07/01 03:14:13;;;;;;;6.03;2.80;;;;;;;;;;4997593;28;20184;-88
2023/07/01 03:16:41;;;;;;;6.17;2.57;;;;;;;;;;4996076;28;20221;-89
2023/07/01 03:19:11;;;;;;;6.23;2.87;;;;;;;;;;4993880;28;20228;-88
2023/07/01 03:21:44;;;;;;;4.83;2.50;;;;;;;;;;4995723;28;20185;-89
2023/07/01 03:24:10;;;;;;;6.50;2.60;;;;;;;;;;4998181;28;20256;-89
2023/07/01 03:26:44;;;;;;;4.83;2.37;;;;;;;;;;5008409;28;20190;-85
2023/07/01 03:29:16;;;;;;;5.63;2.50;;;;;;;;;;4996143;28;20213;-86
2023/07/01 03:31:47;;;;;;;4.47;2.50;;;;;;;;;;5008793;28;20185;-86
2023/07/01 03:34:16;;;;;;;5.67;2.83;;;;;;;;;;5008910;28;20189;-86
2023/07/01 03:36:42;;;;;;;3.33;2.60;;;;;;;;;;4993670;28;20189;-86
2023/07/01 03:39:09;;;;;;;3.93;2.70;;;;;;;;;;4983722;28;20213;-86
2023/07/01 03:41:38;;;;;;;6.93;2.50;;;;;;;;;;4988464;28;20263;-88
2023/07/01 03:44:04;;;;;;;4.77;2.70;;;;;;;;;;5014423;28;20247;-87
2023/07/01 03:46:37;;;;;;;6.57;2.63;;;;;;;;;;4998778;28;20176;-87
2023/07/01 03:49:03;;;;;;;3.67;2.57;;;;;;;;;;4997099;28;20233;-86
2023/07/01 03:51:34;;;;;;;6.27;3.20;;;;;;;;;;4997044;28;20189;-86
2023/07/01 03:54:00;;;;;;;4.33;2.97;;;;;;;;;;4983980;28;20182;-87
2023/07/01 03:56:54;;;;;;;5.97;2.87;;;;;;;;;;5009290;28;20207;-86
2023/07/01 03:59:20;;;;;;;5.03;3.03;;;;;;;;;;5005095;28;20213;-87
2023/07/01 04:01:50;;;;;;;5.07;2.80;;;;;;;;;;5002702;28;20173;-89
2023/07/01 04:04:21;;;;;;;6.70;2.97;;;;;;;;;;5008728;28;20173;-86
2023/07/01 04:06:47;;;;;;;5.37;3.03;;;;;;;;;;5004034;28;20226;-89
2023/07/01 04:09:13;;;;;;;4.60;2.70;;;;;;;;;;4998479;28;20209;-90
2023/07/01 04:11:40;;;;;;;5.40;2.70;;;;;;;;;;4996133;28;20185;-87
2023/07/01 04:14:06;;;;;;;5.00;2.90;;;;;;;;;;4996376;28;20189;-87
2023/07/01 04:16:35;;;;;;;5.73;3.10;;;;;;;;;;4999366;28;20177;-86
2023/07/01 04:19:06;;;;;;;6.90;2.73;;;;;;;;;;4991360;28;20213;-88
2023/07/01 04:21:33;;;;;;;3.53;2.67;;;;;;;;;;5005931;28;20196;-88
2023/07/01 04:24:01;;;;;;;6.27;2.90;;;;;;;;;;4999174;28;20220;-88
2023/07/01 04:26:41;;;;;;;5.50;2.80;;;;;;;;;;4998932;28;20276;-88
2023/07/01 04:29:09;;;;;;;6.33;2.83;;;;;;;;;;5001418;28;20217;-89
2023/07/01 04:31:40;;;;;;;5.07;2.73;;;;;;;;;;4996338;28;20177;-88
2023/07/01 04:34:08;;;;;;;4.93;2.50;;;;;;;;;;4996761;28;20178;-89
2023/07/01 04:36:37;;;;;;;3.97;2.40;;;;;;;;;;4999373;28;20195;-87
2023/07/01 04:39:06;;;;;;;5.93;2.60;;;;;;;;;;4997862;28;20254;-88
2023/07/01 04:41:35;;;;;;;5.20;2.60;;;;;;;;;;4987898;28;20248;-88
2023/07/01 04:44:06;;;;;;;4.00;2.67;;;;;;;;;;4975487;28;20174;-87
2023/07/01 04:46:34;;;;;;;3.90;2.50;;;;;;;;;;4985366;28;20218;-87
2023/07/01 04:49:09;;;;;;;5.53;2.33;;;;;;;;;;4986323;28;20190;-87
2023/07/01 04:52:08;;;;;;;;;;;;;;;;;;;;;
2023/07/01 04:54:37;;;;;;;3.40;2.47;;;;;;;;;;4993821;28;20186;-87
2023/07/01 04:57:23;;;;;;;4.77;2.50;;;;;;;;;;4979404;28;20178;-88
2023/07/01 04:59:58;;;;;;;5.77;2.77;;;;;;;;;;4980856;28;20210;-88
2023/07/01 05:02:35;;;;;;;4.80;2.70;;;;;;;;;;4977674;28;20189;-87
2023/07/01 05:05:04;;;;;;;4.13;3.00;;;;;;;;;;4983443;28;20209;-88
2023/07/01 05:07:30;;;;;;;3.97;2.83;;;;;;;;;;4983918;28;20213;-87
2023/07/01 05:09:56;;;;;;;3.23;2.70;;;;;;;;;;4984014;28;20195;-86
2023/07/01 05:12:22;;;;;;;4.53;2.93;;;;;;;;;;4975530;28;20214;-86
2023/07/01 05:14:48;;;;;;;3.33;2.80;;;;;;;;;;4966636;28;20193;-86
2023/07/01 05:17:14;;;;;;;3.73;2.80;;;;;;;;;;4979105;28;20190;-84
2023/07/01 05:19:40;;;;;;;4.40;2.90;;;;;;;;;;4978682;28;20276;-85
2023/07/01 05:22:06;;;;;;;3.00;2.60;;;;;;;;;;4959492;28;20187;-84
2023/07/01 05:24:33;;;;;;;5.10;3.07;;;;;;;;;;4980922;28;20198;-85
2023/07/01 05:26:59;;;;;;;2.90;2.70;;;;;;;;;;4979162;28;20210;-87
2023/07/01 05:29:26;;;;;;;3.97;2.77;;;;;;;;;;4978692;28;20190;-86
2023/07/01 05:31:52;;;;;;;4.07;2.80;;;;;;;;;;4978029;28;20186;-87
2023/07/01 05:34:18;;;;;;;5.07;3.10;;;;;;;;;;4978999;28;20276;-87
2023/07/01 05:36:44;;;;;;;3.17;2.87;;;;;;;;;;4987538;28;20193;-86
2023/07/01 05:39:10;;;;;;;3.83;3.20;;;;;;;;;;4983179;28;20242;-87
2023/07/01 05:41:37;;;;;;;5.03;2.93;;;;;;;;;;5009818;28;20229;-87
2023/07/01 05:44:03;;;;;;;3.30;2.97;;;;;;;;;;4981949;28;20292;-87
2023/07/01 05:46:29;;;;;;;3.50;3.20;;;;;;;;;;4997901;28;20245;-87
2023/07/01 05:48:55;;;;;;;3.37;2.90;;;;;;;;;;4984538;28;20190;-87
2023/07/01 05:51:21;;;;;;;3.13;2.83;;;;;;;;;;4994572;28;20269;-88
2023/07/01 05:54:05;;;;;;;3.10;2.80;;;;;;;;;;4978051;28;20175;-87
2023/07/01 05:56:37;;;;;;;3.50;3.10;;;;;;;;;;4993799;28;20234;-87
2023/07/01 05:59:03;;;;;;;3.50;3.20;;;;;;;;;;4979105;28;20182;-87
2023/07/01 06:01:29;;;;;;;3.70;3.40;;;;;;;;;;4978197;28;20182;-87
2023/07/01 06:03:55;;;;;;;4.40;3.20;;;;;;;;;;4995982;28;20179;-88
2023/07/01 06:06:33;;;;;;;3.87;3.30;;;;;;;;;;4997818;28;20181;-87
2023/07/01 06:09:02;;;;;;;3.30;3.03;;;;;;;;;;4993513;28;20189;-88
2023/07/01 06:11:28;;;;;;;5.67;3.30;;;;;;;;;;4994487;28;20174;-88
2023/07/01 06:13:57;;;;;;;2.93;2.70;;;;;;;;;;4978241;28;20201;-88
2023/07/01 06:16:26;;;;;;;3.97;2.87;;;;;;;;;;4994532;28;20174;-87
2023/07/01 06:18:52;;;;;;;3.87;3.27;;;;;;;;;;4993788;28;20173;-89
2023/07/01 06:21:19;;;;;;;4.10;3.10;;;;;;;;;;5008527;28;20178;-88
2023/07/01 06:26:51;;;;;;;3.17;2.87;;;;;;;;;;4995655;28;20204;-88
2023/07/01 06:29:17;;;;;;;3.67;3.37;;;;;;;;;;4996327;28;20206;-87
2023/07/01 06:31:44;;;;;;;4.00;3.00;;;;;;;;;;4977726;28;20198;-86
2023/07/01 06:34:15;;;;;;;3.43;3.07;;;;;;;;;;4980242;28;20236;-80
2023/07/01 06:36:41;;;;;;;3.27;2.97;;;;;;;;;;4982799;28;20285;-82
2023/07/01 06:39:07;;;;;;;4.10;3.23;;;;;;;;;;4993301;28;20201;-81
2023/07/01 06:41:33;;;;;;;3.53;3.20;;;;;;;;;;4977569;28;20226;-80
2023/07/01 06:43:59;;;;;;;3.80;3.40;;;;;;;;;;4993814;28;20189;-80
2023/07/01 06:46:29;;;;;;;4.00;3.10;;;;;;;;;;4980354;28;20197;-80
2023/07/01 06:48:55;;;;;;;3.63;3.20;;;;;;;;;;4997055;28;20247;-81
2023/07/01 06:51:21;;;;;;;3.73;3.20;;;;;;;;;;4996988;28;20177;-81
2023/07/01 06:53:47;;;;;;;3.70;3.40;;;;;;;;;;4996786;28;20177;-81
2023/07/01 06:56:13;;;;;;;4.00;3.30;;;;;;;;;;4980253;28;20185;-81
2023/07/01 06:58:42;;;;;;;4.07;3.20;;;;;;;;;;4985505;28;20181;-81
2023/07/01 07:01:08;;;;;;;4.20;3.30;;;;;;;;;;4981223;28;20465;-81
2023/07/01 07:03:39;;;;;;;3.73;3.43;;;;;;;;;;4980914;28;20177;-80
2023/07/01 07:06:05;;;;;;;3.43;3.07;;;;;;;;;;4980876;28;20185;-81
2023/07/01 07:08:31;;;;;;;3.27;3.00;;;;;;;;;;4983529;28;20189;-81
2023/07/01 07:10:57;;;;;;;3.50;3.20;;;;;;;;;;4984594;28;20212;-80
2023/07/01 07:13:23;;;;;;;3.53;2.80;;;;;;;;;;4992475;28;20184;-81
2023/07/01 07:15:49;;;;;;;4.60;2.90;;;;;;;;;;5004347;28;20192;-81
2023/07/01 07:18:16;;;;;;;3.60;2.80;;;;;;;;;;5005284;28;20195;-80
2023/07/01 07:20:42;;;;;;;3.10;2.80;;;;;;;;;;5004144;28;20208;-79
2023/07/01 07:23:08;;;;;;;3.60;2.90;;;;;;;;;;4987500;28;20184;-81
2023/07/01 07:25:34;;;;;;;3.67;2.80;;;;;;;;;;5017957;28;20176;-80
2023/07/01 07:28:00;;;;;;;3.57;3.13;;;;;;;;;;5003388;28;20262;-80
2023/07/01 07:30:26;;;;;;;3.50;3.20;;;;;;;;;;5019955;28;20180;-80
2023/07/01 07:32:52;;;;;;;3.67;2.93;;;;;;;;;;5007121;28;20189;-81
2023/07/01 07:35:19;;;;;;;3.77;3.30;;;;;;;;;;4984395;28;20280;-80
2023/07/01 07:37:45;;;;;;;3.40;3.10;;;;;;;;;;5000348;28;20235;-81
2023/07/01 07:40:11;;;;;;;3.17;2.87;;;;;;;;;;4999740;28;20269;-81
2023/07/01 07:42:37;;;;;;;4.53;3.10;;;;;;;;;;4984090;28;20182;-80
2023/07/01 07:45:04;;;;;;;3.20;2.90;;;;;;;;;;4984147;28;20189;-80
2023/07/01 07:47:30;;;;;;;2.70;2.50;;;;;;;;;;4984074;28;20181;-81
2023/07/01 07:49:56;;;;;;;4.60;2.90;;;;;;;;;;5000342;28;20192;-80
2023/07/01 07:52:22;;;;;;;2.90;2.70;;;;;;;;;;4999984;28;20201;-81
2023/07/01 07:54:48;;;;;;;3.83;3.30;;;;;;;;;;4999540;28;20185;-81
2023/07/01 07:57:14;;;;;;;3.50;2.97;;;;;;;;;;4983658;28;20185;-83
2023/07/01 07:59:41;;;;;;;3.00;2.80;;;;;;;;;;4983399;28;20264;-80
2023/07/01 08:02:08;;;;;;;3.77;2.80;;;;;;;;;;5012722;28;20209;-81
2023/07/01 08:04:34;;;;;;;3.27;2.97;;;;;;;;;;5000211;28;20185;-81
2023/07/01 08:07:00;;;;;;;5.07;3.17;;;;;;;;;;4998376;28;20177;-81
2023/07/01 08:09:26;;;;;;;3.90;2.77;;;;;;;;;;4981641;28;20263;-82
2023/07/01 08:11:53;;;;;;;3.37;3.07;;;;;;;;;;4999397;28;20174;-81
2023/07/01 08:14:19;;;;;;;2.90;2.70;;;;;;;;;;4999572;28;20231;-80
2023/07/01 08:16:45;;;;;;;3.50;3.20;;;;;;;;;;4998419;28;20193;-81
2023/07/01 08:19:11;;;;;;;4.70;3.10;;;;;;;;;;4977729;28;20217;-81
2023/07/01 08:21:38;;;;;;;3.87;3.57;;;;;;;;;;4991026;28;20190;-81
2023/07/01 08:24:05;;;;;;;3.47;3.27;;;;;;;;;;4979877;28;20186;-81
2023/07/01 08:26:31;;;;;;;4.03;3.40;;;;;;;;;;4979603;28;20193;-81
2023/07/01 08:28:57;;;;;;;4.00;3.03;;;;;;;;;;4970972;28;20214;-81
2023/07/01 08:31:23;;;;;;;3.57;3.27;;;;;;;;;;4980574;28;20192;-86
2023/07/01 08:33:49;;;;;;;4.17;3.50;;;;;;;;;;4979033;28;20217;-87
2023/07/01 08:36:15;;;;;;;4.07;3.30;;;;;;;;;;4963099;28;20186;-86
2023/07/01 08:38:41;;;;;;;3.23;2.97;;;;;;;;;;4982157;28;20178;-88
2023/07/01 08:41:09;;;;;;;3.57;3.27;;;;;;;;;;4997978;28;20343;-87
2023/07/01 08:43:39;;;;;;;3.27;3.03;;;;;;;;;;4998801;28;20220;-86
2023/07/01 08:46:09;;;;;;;3.50;3.20;;;;;;;;;;4998790;28;20235;-89
2023/07/01 08:48:35;;;;;;;3.50;3.20;;;;;;;;;;4998844;28;20204;-86
2023/07/01 08:51:04;;;;;;;3.90;3.60;;;;;;;;;;4977808;28;20193;-87
2023/07/01 08:53:30;;;;;;;3.80;3.50;;;;;;;;;;4979233;28;20190;-88
2023/07/01 08:55:57;;;;;;;4.10;3.80;;;;;;;;;;4979410;28;20209;-87
2023/07/01 08:58:24;;;;;;;4.33;3.73;;;;;;;;;;4993220;28;20189;-88
2023/07/01 09:00:50;;;;;;;4.00;3.70;;;;;;;;;;4982808;28;20243;-88
2023/07/01 09:03:16;;;;;;;3.77;3.47;;;;;;;;;;4998852;28;20177;-88
2023/07/01 09:05:42;;;;;;;3.90;3.50;;;;;;;;;;4997816;28;20185;-86
2023/07/01 09:08:08;;;;;;;3.90;3.30;;;;;;;;;;4998389;28;20184;-87
2023/07/01 09:10:35;;;;;;;3.80;3.50;;;;;;;;;;4982608;28;20181;-87
2023/07/01 09:13:14;;;;;;;3.97;3.67;;;;;;;;;;4982357;28;20342;-87
2023/07/01 09:15:42;;;;;;;4.80;3.70;;;;;;;;;;4979728;28;20243;-87
2023/07/01 09:18:30;;;;;;;4.10;3.67;;;;;;;;;;4994982;28;20256;-87
2023/07/01 09:20:56;;;;;;;4.07;3.77;;;;;;;;;;4997357;28;20412;-86
2023/07/01 09:23:30;;;;;;;3.67;3.37;;;;;;;;;;4997451;28;20189;-86
2023/07/01 09:26:11;;;;;;;4.17;3.87;;;;;;;;;;4978725;28;20256;-87
2023/07/01 09:28:40;;;;;;;4.87;4.47;;;;;;;;;;4994706;28;20228;-85
2023/07/01 09:31:09;;;;;;;4.73;4.33;;;;;;;;;;4994815;28;20185;-84
2023/07/01 09:33:35;;;;;;;4.83;4.53;;;;;;;;;;5000528;28;20185;-85
2023/07/01 09:36:02;;;;;;;4.20;3.90;;;;;;;;;;4980987;28;20220;-87
2023/07/01 09:38:28;;;;;;;4.90;4.47;;;;;;;;;;4970923;28;20193;-86
2023/07/01 09:40:54;;;;;;;5.40;5.00;;;;;;;;;;4983198;28;20228;-86
2023/07/01 09:43:20;;;;;;;5.07;4.30;;;;;;;;;;4974399;28;20193;-86
2023/07/01 09:45:56;;;;;;;5.27;4.77;;;;;;;;;;5001649;28;20185;-86
2023/07/01 09:48:23;;;;;;;5.83;5.33;;;;;;;;;;4997217;28;20177;-83
2023/07/01 09:50:50;;;;;;;5.50;5.00;;;;;;;;;;4998101;28;20185;-87
2023/07/01 09:53:22;;;;;;;4.80;4.40;;;;;;;;;;5015685;28;20208;-86
2023/07/01 09:55:49;;;;;;;6.23;4.80;;;;;;;;;;5005317;28;20196;-86
2023/07/01 09:58:16;;;;;;;6.60;4.63;;;;;;;;;;4970810;28;20200;-87
2023/07/01 10:00:43;;;;;;;5.10;4.70;;;;;;;;;;4996481;28;20208;-88
2023/07/01 10:03:09;;;;;;;5.10;4.70;;;;;;;;;;4997563;28;20188;-87
2023/07/01 10:05:35;;;;;;;5.47;4.97;;;;;;;;;;4997277;28;20265;-87
2023/07/01 10:08:02;;;;;;;6.13;5.20;;;;;;;;;;4995544;28;20181;-88
2023/07/01 10:10:28;;;;;;;5.57;4.90;;;;;;;;;;4995408;28;20189;-87
2023/07/01 10:12:55;;;;;;;5.40;5.00;;;;;;;;;;4997834;28;20192;-87
2023/07/01 10:15:25;;;;;;;5.67;5.13;;;;;;;;;;4998524;28;20181;-87
2023/07/01 10:17:53;;;;;;;5.13;4.70;;;;;;;;;;4998394;28;20181;-87
2023/07/01 10:20:26;;;;;;;5.13;4.73;;;;;;;;;;4995987;28;20214;-88
2023/07/01 10:23:00;;;;;;;4.90;4.57;;;;;;;;;;4997134;28;20178;-89
2023/07/01 10:25:30;;;;;;;4.80;4.43;;;;;;;;;;4997077;28;20177;-88
2023/07/01 10:27:59;;;;;;;5.07;4.57;;;;;;;;;;4996233;28;20197;-87
2023/07/01 10:30:26;;;;;;;5.10;4.70;;;;;;;;;;4996826;28;20178;-87
2023/07/01 10:32:52;;;;;;;6.70;4.80;;;;;;;;;;5005478;28;20187;-87
2023/07/01 10:35:18;;;;;;;5.00;4.53;;;;;;;;;;5004652;28;20185;-87
2023/07/01 10:37:45;;;;;;;4.90;4.50;;;;;;;;;;5005848;28;20267;-87
2023/07/01 10:40:29;;;;;;;5.00;4.53;;;;;;;;;;5006574;28;20236;-87
2023/07/01 10:43:18;;;;;;;5.13;4.70;;;;;;;;;;5009549;28;20181;-87
2023/07/01 10:45:44;;;;;;;5.43;4.57;;;;;;;;;;5002912;28;20260;-86
2023/07/01 10:48:14;;;;;;;4.80;4.40;;;;;;;;;;4981687;28;20220;-88
2023/07/01 10:50:59;;;;;;;4.97;4.57;;;;;;;;;;4996711;28;20185;-88
2023/07/01 10:53:26;;;;;;;6.37;4.90;;;;;;;;;;4996717;28;20181;-87
2023/07/01 10:55:52;;;;;;;5.47;4.57;;;;;;;;;;4996793;28;20181;-88
2023/07/01 10:58:26;;;;;;;5.30;4.90;;;;;;;;;;4980457;28;20332;-88
2023/07/01 11:00:59;;;;;;;5.63;5.13;;;;;;;;;;4990560;28;20899;-89
2023/07/01 11:03:34;;;;;;;5.53;5.03;;;;;;;;;;4993852;28;20182;-88
2023/07/01 11:06:07;;;;;;;5.50;4.90;;;;;;;;;;4993169;28;20181;-88
2023/07/01 11:08:35;;;;;;;5.60;5.10;;;;;;;;;;4995155;28;20234;-88
2023/07/01 11:11:01;;;;;;;6.77;4.90;;;;;;;;;;5008681;28;20212;-88
2023/07/01 11:13:27;;;;;;;5.37;4.87;;;;;;;;;;5008714;28;20192;-88
2023/07/01 11:16:02;;;;;;;5.57;5.07;;;;;;;;;;5007892;28;20186;-88
2023/07/01 11:18:44;;;;;;;5.53;5.07;;;;;;;;;;5011167;28;20434;-88
2023/07/01 11:21:11;;;;;;;5.73;5.17;;;;;;;;;;4996602;28;20259;-88
2023/07/01 11:23:38;;;;;;;5.50;5.00;;;;;;;;;;4996523;28;20268;-88
2023/07/01 11:26:04;;;;;;;5.77;5.27;;;;;;;;;;4996918;28;20264;-90
2023/07/01 11:28:34;;;;;;;5.60;5.10;;;;;;;;;;4999513;28;20219;-89
2023/07/01 11:31:10;;;;;;;5.83;5.33;;;;;;;;;;4996669;28;20223;-88
2023/07/01 11:33:36;;;;;;;6.83;5.97;;;;;;;;;;4996585;28;20185;-90
2023/07/01 11:36:02;;;;;;;5.03;4.63;;;;;;;;;;4996347;28;20190;-89
2023/07/01 11:38:29;;;;;;;5.37;4.90;;;;;;;;;;4996736;28;20294;-89
2023/07/01 11:40:55;;;;;;;6.40;5.80;;;;;;;;;;4980889;28;20240;-88
2023/07/01 11:43:22;;;;;;;5.70;5.10;;;;;;;;;;4997003;28;20189;-89
2023/07/01 11:45:50;;;;;;;6.32;5.35;;;;;;;;;;4996743;28;20497;-88
2023/07/01 11:48:16;;;;;;;5.83;5.33;;;;;;;;;;4976729;28;20186;-89
2023/07/01 11:50:51;;;;;;;6.90;6.30;;;;;;;;;;4976072;28;20508;-89
2023/07/01 11:53:17;;;;;;;6.10;5.60;;;;;;;;;;4977770;28;20177;-88
2023/07/01 11:55:44;;;;;;;5.90;5.40;;;;;;;;;;4980431;28;20174;-89
2023/07/01 11:58:25;;;;;;;5.97;5.47;;;;;;;;;;4980032;28;20174;-90
2023/07/01 12:00:51;;;;;;;6.53;5.53;;;;;;;;;;4980842;28;20213;-90
2023/07/01 12:03:17;;;;;;;5.57;5.07;;;;;;;;;;4980561;28;20209;-90
2023/07/01 12:05:44;;;;;;;7.00;6.27;;;;;;;;;;4984873;28;20216;-91
2023/07/01 12:08:10;;;;;;;6.37;5.77;;;;;;;;;;4999458;28;20189;-83
2023/07/01 12:10:40;;;;;;;6.50;5.80;;;;;;;;;;4999431;28;20181;-84
2023/07/01 12:13:06;;;;;;;5.87;5.37;;;;;;;;;;4996196;28;20283;-84
2023/07/01 12:15:33;;;;;;;7.37;6.47;;;;;;;;;;4998840;28;20185;-83
2023/07/01 12:18:17;;;;;;;8.37;6.20;;;;;;;;;;4997919;28;20193;-83
2023/07/01 12:20:44;;;;;;;6.70;6.10;;;;;;;;;;4999028;28;20215;-83
2023/07/01 12:23:10;;;;;;;6.80;6.20;;;;;;;;;;5000396;28;20185;-83
2023/07/01 12:25:36;;;;;;;6.40;5.73;;;;;;;;;;4999116;28;20244;-83
2023/07/01 12:28:04;;;;;;;6.93;6.23;;;;;;;;;;4982619;28;20213;-83
2023/07/01 12:30:30;;;;;;;6.63;6.00;;;;;;;;;;4999283;28;20185;-83
2023/07/01 12:32:56;;;;;;;6.33;5.83;;;;;;;;;;4983623;28;20239;-83
2023/07/01 12:35:22;;;;;;;7.63;6.83;;;;;;;;;;4983442;28;20190;-80
2023/07/01 12:37:48;;;;;;;7.27;6.43;;;;;;;;;;4995466;28;20268;-81
2023/07/01 12:40:14;;;;;;;6.27;5.30;;;;;;;;;;4979555;28;20237;-81
2023/07/01 12:42:41;;;;;;;4.90;4.50;;;;;;;;;;4979651;28;20183;-81
2023/07/01 12:45:08;;;;;;;5.00;4.53;;;;;;;;;;4982542;28;20196;-81
2023/07/01 12:47:34;;;;;;;4.43;4.03;;;;;;;;;;4999456;28;20260;-83
2023/07/01 12:50:00;;;;;;;4.63;4.23;;;;;;;;;;4979217;28;20225;-81
2023/07/01 12:52:26;;;;;;;5.10;4.60;;;;;;;;;;4979858;28;20240;-82
2023/07/01 12:54:55;;;;;;;5.57;5.07;;;;;;;;;;4979703;28;20182;-83
2023/07/01 12:57:21;;;;;;;6.00;5.40;;;;;;;;;;4995685;28;20228;-84
2023/07/01 12:59:47;;;;;;;6.00;5.50;;;;;;;;;;4995415;28;20213;-83
2023/07/01 13:02:13;;;;;;;6.83;6.23;;;;;;;;;;4998930;28;20260;-83
2023/07/01 13:04:39;;;;;;;7.13;6.00;;;;;;;;;;4998484;28;20177;-83
2023/07/01 13:07:06;;;;;;;24.13;18.60;;;;;;;;;;4998801;28;20173;-84
2023/07/01 13:09:42;;;;;;;9.93;8.40;;;;;;;;;;4998220;28;20260;-84
2023/07/01 13:12:09;;;;;;;9.00;8.10;;;;;;;;;;4996713;28;20190;-84
2023/07/01 13:14:35;;;;;;;10.60;8.80;;;;;;;;;;4999016;28;20186;-82
2023/07/01 13:17:01;;;;;;;10.83;9.73;;;;;;;;;;4998803;28;20185;-82
2023/07/01 13:19:27;;;;;;;9.70;8.80;;;;;;;;;;4998680;28;20252;-82
2023/07/01 13:21:53;;;;;;;9.53;8.63;;;;;;;;;;4998359;28;20181;-84
2023/07/01 13:24:19;;;;;;;10.50;9.60;;;;;;;;;;5001592;28;20181;-84
2023/07/01 13:26:46;;;;;;;10.80;9.80;;;;;;;;;;4994879;28;20182;-83
2023/07/01 13:29:17;;;;;;;10.20;9.30;;;;;;;;;;4998279;28;20220;-82
2023/07/01 13:31:44;;;;;;;11.73;10.73;;;;;;;;;;4990544;28;20209;-82
2023/07/01 13:34:11;;;;;;;12.70;11.47;;;;;;;;;;4995634;28;20209;-82
2023/07/01 13:36:38;;;;;;;12.57;11.47;;;;;;;;;;4996077;28;20189;-82
2023/07/01 13:39:05;;;;;;;11.07;10.03;;;;;;;;;;4998459;28;20231;-82
2023/07/01 13:41:31;;;;;;;12.67;11.47;;;;;;;;;;4997845;28;20290;-82
2023/07/01 13:44:01;;;;;;;12.43;11.20;;;;;;;;;;4998080;28;20181;-82
2023/07/01 13:46:36;;;;;;;11.97;10.90;;;;;;;;;;4996920;28;20264;-82
2023/07/01 13:49:03;;;;;;;10.17;9.07;;;;;;;;;;4987870;28;20191;-83
2023/07/01 13:51:34;;;;;;;10.23;9.23;;;;;;;;;;4978078;28;20217;-82
2023/07/01 13:54:01;;;;;;;10.07;9.10;;;;;;;;;;4982631;28;20236;-82
2023/07/01 13:56:27;;;;;;;9.73;8.83;;;;;;;;;;4997383;28;20216;-82
2023/07/01 13:58:54;;;;;;;7.57;6.97;;;;;;;;;;4981858;28;20185;-82
2023/07/01 14:01:20;;;;;;;6.97;6.37;;;;;;;;;;4997472;28;20232;-82
2023/07/01 14:03:53;;;;;;;7.20;6.60;;;;;;;;;;4975587;28;20189;-82
2023/07/01 14:06:20;;;;;;;7.27;6.57;;;;;;;;;;4962329;28;20186;-82
2023/07/01 14:08:46;;;;;;;7.17;6.57;;;;;;;;;;5001096;28;20215;-82
2023/07/01 14:11:16;;;;;;;7.13;6.50;;;;;;;;;;4997754;28;20268;-81
2023/07/01 14:13:42;;;;;;;7.47;6.70;;;;;;;;;;5004554;28;20223;-82
2023/07/01 14:16:09;;;;;;;7.93;6.53;;;;;;;;;;4981472;28;20193;-83
2023/07/01 14:18:39;;;;;;;7.10;6.37;;;;;;;;;;4996004;28;20189;-83
2023/07/01 14:21:05;;;;;;;10.53;7.50;;;;;;;;;;4978102;28;20225;-81
2023/07/01 14:23:35;;;;;;;8.43;7.20;;;;;;;;;;4981896;28;20186;-84
2023/07/01 14:26:02;;;;;;;9.27;7.20;;;;;;;;;;4981980;28;20398;-84
2023/07/01 14:28:28;;;;;;;7.90;7.20;;;;;;;;;;5007687;28;20220;-84
2023/07/01 14:31:07;;;;;;;7.83;6.97;;;;;;;;;;4998332;28;20327;-84
2023/07/01 14:33:52;;;;;;;7.97;7.17;;;;;;;;;;4997381;28;20196;-83
2023/07/01 14:36:19;;;;;;;8.23;7.43;;;;;;;;;;4997133;28;20177;-83
2023/07/01 14:38:45;;;;;;;8.63;7.40;;;;;;;;;;4998219;28;20173;-83
2023/07/01 14:41:31;;;;;;;7.07;6.37;;;;;;;;;;4996926;28;20229;-84
2023/07/01 14:44:05;;;;;;;8.53;7.63;;;;;;;;;;4997466;28;20204;-84
2023/07/01 14:46:32;;;;;;;15.43;9.17;;;;;;;;;;4998171;28;20180;-83
2023/07/01 14:48:58;;;;;;;6.90;6.20;;;;;;;;;;4998232;28;20320;-83
2023/07/01 14:51:24;;;;;;;105.07;39.63;;;;;;;;;;5008668;28;20181;-84
2023/07/01 14:53:51;;;;;;;31.43;15.70;;;;;;;;;;4977036;28;20228;-84
2023/07/01 14:56:18;;;;;;;9.80;7.33;;;;;;;;;;4995743;28;20193;-84
2023/07/01 14:58:45;;;;;;;7.03;5.93;;;;;;;;;;4996366;28;20207;-87
2023/07/01 15:01:11;;;;;;;75.07;37.40;;;;;;;;;;4995642;28;20215;-82
2023/07/01 15:03:37;;;;;;;14.07;8.50;;;;;;;;;;4996944;28;20190;-83
2023/07/01 15:06:04;;;;;;;9.37;6.37;;;;;;;;;;4997011;28;20196;-83
2023/07/01 15:08:30;;;;;;;8.23;5.23;;;;;;;;;;4997179;28;20177;-82